createdAt,value
2022-08-14T00:00:58.617Z,46.60
2022-08-14T00:03:29.551Z,47.10
2022-08-14T00:05:59.923Z,47.60
2022-08-14T00:08:42.029Z,47.10
2022-08-14T00:11:08.200Z,46.20
2022-08-14T00:13:33.149Z,47.00
2022-08-14T00:15:58.988Z,46.90
2022-08-14T00:18:30.516Z,47.50
2022-08-14T00:21:11.782Z,48.00
2022-08-14T00:23:35.505Z,48.00
2022-08-14T00:26:06.435Z,49.50
2022-08-14T00:28:32.773Z,49.10
2022-08-14T00:31:00.176Z,50.70
2022-08-14T00:33:51.157Z,49.80
2022-08-14T00:36:34.960Z,50.50
2022-08-14T00:38:54.149Z,50.60
2022-08-14T00:41:17.850Z,50.60
2022-08-14T00:43:43.217Z,51.00
2022-08-14T00:46:32.714Z,51.30
2022-08-14T00:48:58.072Z,52.00
2022-08-14T00:51:22.783Z,53.50
2022-08-14T00:53:47.602Z,51.20
2022-08-14T00:56:15.476Z,50.80
2022-08-14T00:58:45.174Z,51.40
2022-08-14T01:01:14.646Z,53.80
2022-08-14T01:03:42.309Z,52.70
2022-08-14T01:06:09.715Z,53.30
2022-08-14T01:08:52.114Z,54.30
2022-08-14T01:11:40.903Z,54.30
2022-08-14T01:14:26.041Z,54.60
2022-08-14T01:16:53.057Z,53.50
2022-08-14T01:19:34.746Z,53.30
2022-08-14T01:22:01.073Z,52.80
2022-08-14T01:24:30.934Z,53.10
2022-08-14T01:27:00.053Z,53.10
2022-08-14T01:29:43.159Z,55.30
2022-08-14T01:32:10.693Z,56.20
2022-08-14T01:35:18.504Z,57.00
2022-08-14T01:37:21.071Z,56.70
2022-08-14T01:39:45.357Z,56.20
2022-08-14T01:42:09.520Z,54.50
2022-08-14T01:44:55.448Z,55.80
2022-08-14T01:47:21.626Z,54.40
2022-08-14T01:49:59.994Z,54.90
2022-08-14T01:52:34.291Z,56.30
2022-08-14T01:55:14.261Z,57.60
2022-08-14T01:58:01.678Z,58.40
2022-08-14T02:00:22.526Z,59.40
2022-08-14T02:02:52.607Z,58.50
2022-08-14T02:05:18.328Z,57.90
2022-08-14T02:07:55.945Z,58.70
2022-08-14T02:10:29.880Z,59.60
2022-08-14T02:12:56.817Z,60.40
2022-08-14T02:15:21.788Z,58.70
2022-08-14T02:17:45.647Z,61.50
2022-08-14T02:20:14.274Z,60.40
2022-08-14T02:22:47.214Z,60.10
2022-08-14T02:25:13.217Z,61.40
2022-08-14T02:28:25.439Z,60.10
2022-08-14T02:30:27.063Z,63.60
2022-08-14T02:32:55.053Z,62.90
2022-08-14T02:35:26.579Z,63.10
2022-08-14T02:37:56.907Z,64.40
2022-08-14T02:40:32.522Z,64.20
2022-08-14T02:42:58.173Z,63.00
2022-08-14T02:45:22.445Z,61.90
2022-08-14T02:47:47.557Z,61.60
2022-08-14T02:50:11.642Z,63.80
2022-08-14T02:52:57.444Z,62.70
2022-08-14T02:55:23.079Z,63.50
2022-08-14T02:57:51.917Z,62.80
2022-08-14T03:00:22.477Z,64.20
2022-08-14T03:02:56.073Z,63.10
2022-08-14T03:05:23.688Z,65.90
2022-08-14T03:07:47.364Z,66.70
2022-08-14T03:10:25.810Z,65.00
2022-08-14T03:12:53.377Z,66.10
2022-08-14T03:15:19.177Z,64.70
2022-08-14T03:17:57.471Z,65.10
2022-08-14T03:20:22.549Z,64.60
2022-08-14T03:22:47.007Z,65.80
2022-08-14T03:25:14.833Z,65.30
2022-08-14T03:27:48.188Z,66.30
2022-08-14T03:30:23.590Z,66.50
2022-08-14T03:32:47.305Z,66.40
2022-08-14T03:35:11.934Z,66.30
2022-08-14T03:39:14.560Z,66.10
2022-08-14T03:40:40.849Z,66.60
2022-08-14T03:43:05.788Z,66.60
2022-08-14T03:45:34.941Z,66.10
2022-08-14T03:48:01.904Z,68.90
2022-08-14T03:50:27.967Z,67.60
2022-08-14T03:52:55.796Z,66.60
2022-08-14T03:55:21.229Z,67.40
2022-08-14T03:57:45.493Z,66.30
2022-08-14T04:00:40.377Z,68.40
2022-08-14T04:02:58.408Z,66.60
2022-08-14T04:05:22.231Z,66.80
2022-08-14T04:08:00.143Z,69.20
2022-08-14T04:10:33.081Z,70.20
2022-08-14T04:13:00.051Z,69.30
2022-08-14T04:15:28.029Z,68.60
2022-08-14T04:17:51.657Z,69.70
2022-08-14T04:20:25.537Z,70.20
2022-08-14T04:22:50.549Z,69.50
2022-08-14T04:25:19.764Z,71.50
2022-08-14T04:27:48.737Z,69.90
2022-08-14T04:30:29.674Z,69.80
2022-08-14T04:33:10.977Z,69.10
2022-08-14T04:35:55.354Z,69.90
2022-08-14T04:38:39.791Z,71.60
2022-08-14T04:41:21.159Z,71.70
2022-08-14T04:43:45.542Z,70.10
2022-08-14T04:46:54.799Z,72.90
2022-08-14T04:49:00.118Z,72.20
2022-08-14T04:51:25.937Z,72.60
2022-08-14T04:53:51.205Z,72.90
2022-08-14T04:56:31.366Z,73.80
2022-08-14T04:59:09.673Z,73.70
2022-08-14T05:01:40.008Z,73.40
2022-08-14T05:04:04.965Z,73.60
2022-08-14T05:06:35.181Z,73.80
2022-08-14T05:09:02.379Z,73.30
2022-08-14T05:11:25.921Z,71.80
2022-08-14T05:16:33.747Z,72.80
2022-08-14T05:19:26.646Z,71.80
2022-08-14T05:21:59.439Z,71.70
2022-08-14T05:24:25.223Z,73.40
2022-08-14T05:26:48.887Z,72.30
2022-08-14T05:29:12.561Z,72.20
2022-08-14T05:31:40.519Z,70.00
2022-08-14T05:34:04.323Z,70.10
2022-08-14T05:36:28.867Z,68.10
2022-08-14T05:38:55.497Z,67.00
2022-08-14T05:41:21.870Z,66.20
2022-08-14T05:43:47.828Z,65.70
2022-08-14T05:46:18.475Z,65.60
2022-08-14T05:48:45.331Z,64.80
2022-08-14T05:51:09.161Z,63.50
2022-08-14T05:53:34.006Z,64.60
2022-08-14T05:56:00.163Z,64.20
2022-08-14T05:58:33.814Z,62.80
2022-08-14T06:01:06.044Z,63.70
2022-08-14T06:03:29.661Z,63.60
2022-08-14T06:05:56.713Z,62.60
2022-08-14T06:08:36.600Z,63.30
2022-08-14T06:11:09.010Z,62.90
2022-08-14T06:13:45.701Z,62.40
2022-08-14T06:16:10.439Z,62.80
2022-08-14T06:18:35.692Z,63.00
2022-08-14T06:20:59.406Z,63.20
2022-08-14T06:23:23.253Z,62.60
2022-08-14T06:25:52.775Z,62.20
2022-08-14T06:28:28.112Z,62.40
2022-08-14T06:30:53.037Z,62.30
2022-08-14T06:33:18.414Z,63.10
2022-08-14T06:35:42.207Z,62.10
2022-08-14T06:38:06.865Z,62.30
2022-08-14T06:40:34.563Z,62.10
2022-08-14T06:43:03.387Z,60.60
2022-08-14T06:45:30.287Z,60.50
2022-08-14T06:47:54.654Z,60.60
2022-08-14T06:50:21.279Z,62.90
2022-08-14T06:52:52.081Z,60.90
2022-08-14T06:55:21.655Z,60.60
2022-08-14T06:57:51.891Z,58.50
2022-08-14T07:00:26.887Z,60.10
2022-08-14T07:03:12.239Z,58.70
2022-08-14T07:05:57.975Z,59.20
2022-08-14T07:08:26.428Z,59.70
2022-08-14T07:10:57.084Z,60.00
2022-08-14T07:13:24.484Z,59.50
2022-08-14T07:15:50.836Z,59.60
2022-08-14T07:18:23.996Z,58.60
2022-08-14T07:20:47.557Z,58.20
2022-08-14T07:23:20.551Z,59.20
2022-08-14T07:25:47.254Z,60.10
2022-08-14T07:28:20.480Z,57.50
2022-08-14T07:30:51.480Z,56.40
2022-08-14T07:33:15.695Z,57.40
2022-08-14T07:35:57.835Z,57.90
2022-08-14T07:38:24.941Z,57.50
2022-08-14T07:40:53.035Z,57.50
2022-08-14T07:43:23.202Z,57.30
2022-08-14T07:45:50.860Z,56.20
2022-08-14T07:48:17.573Z,57.20
2022-08-14T07:50:45.405Z,55.00
2022-08-14T07:53:09.231Z,55.60
2022-08-14T07:55:33.517Z,55.80
2022-08-14T07:57:58.810Z,54.20
2022-08-14T08:00:30.910Z,57.10
2022-08-14T08:02:57.046Z,54.70
2022-08-14T08:05:27.942Z,56.00
2022-08-14T08:07:55.056Z,56.30
2022-08-14T08:10:57.111Z,55.30
2022-08-14T08:13:24.095Z,55.60
2022-08-14T08:15:50.598Z,54.40
2022-08-14T08:18:20.454Z,54.40
2022-08-14T08:20:54.241Z,54.20
2022-08-14T08:23:30.986Z,53.00
2022-08-14T08:26:03.930Z,53.80
2022-08-14T08:28:29.207Z,54.20
2022-08-14T08:30:56.464Z,55.40
2022-08-14T08:33:21.663Z,54.00
2022-08-14T08:35:50.708Z,52.50
2022-08-14T08:39:14.946Z,53.10
2022-08-14T08:41:04.056Z,54.20
2022-08-14T08:43:30.295Z,52.90
2022-08-14T08:46:00.408Z,53.00
2022-08-14T08:48:31.831Z,53.00
2022-08-14T08:51:05.069Z,52.30
2022-08-14T08:53:33.498Z,51.70
2022-08-14T08:55:57.749Z,49.70
2022-08-14T08:58:25.004Z,51.50
2022-08-14T09:00:54.248Z,50.00
2022-08-14T09:03:24.606Z,50.80
2022-08-14T09:05:54.297Z,51.30
2022-08-14T09:08:30.531Z,52.30
2022-08-14T09:10:57.883Z,50.00
2022-08-14T09:13:25.566Z,49.60
2022-08-14T09:15:50.785Z,50.10
2022-08-14T09:18:18.534Z,49.50
2022-08-14T09:20:49.377Z,48.60
2022-08-14T09:23:16.839Z,48.80
2022-08-14T09:26:00.290Z,50.30
2022-08-14T09:28:26.946Z,49.90
2022-08-14T09:30:55.885Z,49.20
2022-08-14T09:33:56.403Z,47.00
2022-08-14T09:36:48.123Z,47.30
2022-08-14T09:39:26.146Z,46.90
2022-08-14T09:42:20.658Z,46.40
2022-08-14T09:45:10.665Z,48.10
2022-08-14T09:47:49.169Z,47.30
2022-08-14T09:50:27.870Z,47.20
2022-08-14T09:52:57.716Z,46.70
2022-08-14T09:55:24.011Z,47.00
2022-08-14T09:57:49.102Z,45.60
2022-08-14T10:00:30.343Z,47.00
2022-08-14T10:02:58.440Z,48.40
2022-08-14T10:05:34.491Z,46.40
2022-08-14T10:08:03.082Z,45.60
2022-08-14T10:10:41.755Z,45.80
2022-08-14T10:13:08.835Z,43.60
2022-08-14T10:15:40.047Z,44.60
2022-08-14T10:18:17.408Z,44.80
2022-08-14T10:20:48.252Z,44.50
2022-08-14T10:23:17.840Z,42.10
2022-08-14T10:25:44.699Z,43.70
2022-08-14T10:28:09.541Z,42.60
2022-08-14T10:30:54.685Z,42.80
2022-08-14T10:33:30.998Z,44.00
2022-08-14T10:35:54.714Z,41.60
2022-08-14T10:38:29.605Z,42.20
2022-08-14T10:40:59.607Z,40.00
2022-08-14T10:43:26.812Z,41.40
2022-08-14T10:46:21.836Z,42.70
2022-08-14T10:48:58.971Z,42.40
2022-08-14T10:51:27.217Z,43.40
2022-08-14T10:53:57.032Z,41.90
2022-08-14T10:56:35.004Z,40.90
2022-08-14T10:59:03.526Z,41.60
2022-08-14T11:01:38.488Z,40.50
2022-08-14T11:04:08.520Z,41.10
2022-08-14T11:06:33.442Z,40.90
2022-08-14T11:08:58.048Z,40.70
2022-08-14T11:11:23.021Z,41.80
2022-08-14T11:13:47.488Z,42.60
2022-08-14T11:16:11.862Z,41.10
2022-08-14T11:18:40.332Z,41.80
2022-08-14T11:21:06.979Z,41.50
2022-08-14T11:23:37.778Z,40.50
2022-08-14T11:26:03.718Z,41.10
2022-08-14T11:28:47.893Z,40.60
2022-08-14T11:31:15.020Z,41.90
2022-08-14T11:33:41.676Z,40.70
2022-08-14T11:36:17.143Z,40.60
2022-08-14T11:38:45.295Z,40.40
2022-08-14T11:41:10.260Z,39.50
2022-08-14T11:43:41.734Z,40.90
2022-08-14T11:46:06.571Z,40.50
2022-08-14T11:49:03.374Z,40.60
2022-08-14T11:51:30.363Z,39.80
2022-08-14T11:53:57.242Z,39.20
2022-08-14T11:56:25.710Z,38.70
2022-08-14T11:58:54.973Z,38.70
2022-08-14T12:01:20.284Z,37.80
2022-08-14T12:03:52.099Z,37.00
2022-08-14T12:06:28.562Z,36.30
2022-08-14T12:09:03.168Z,37.90
2022-08-14T12:11:26.730Z,39.60
2022-08-14T12:13:56.125Z,37.50
2022-08-14T12:16:22.809Z,37.50
2022-08-14T12:18:50.922Z,38.40
2022-08-14T12:21:19.884Z,39.40
2022-08-14T12:23:43.913Z,37.70
2022-08-14T12:26:31.944Z,38.40
2022-08-14T12:29:08.022Z,38.40
2022-08-14T12:31:41.925Z,36.60
2022-08-14T12:34:13.557Z,35.90
2022-08-14T12:36:43.934Z,38.90
2022-08-14T12:39:20.958Z,37.40
2022-08-14T12:41:57.261Z,37.90
2022-08-14T12:44:32.139Z,39.40
2022-08-14T12:47:06.416Z,38.30
2022-08-14T12:49:31.577Z,36.70
2022-08-14T12:51:59.511Z,36.70
2022-08-14T12:54:28.596Z,37.00
2022-08-14T12:56:52.776Z,37.60
2022-08-14T12:59:18.271Z,37.40
2022-08-14T13:02:01.875Z,37.80
2022-08-14T13:04:29.558Z,36.20
2022-08-14T13:06:54.664Z,35.90
2022-08-14T13:09:20.084Z,36.70
2022-08-14T13:11:46.989Z,36.40
2022-08-14T13:14:17.455Z,35.50
2022-08-14T13:16:42.759Z,36.30
2022-08-14T13:19:11.149Z,36.30
2022-08-14T13:22:05.668Z,36.60
2022-08-14T13:24:27.572Z,36.80
2022-08-14T13:26:56.071Z,37.40
2022-08-14T13:29:21.766Z,36.60
2022-08-14T13:31:47.197Z,37.20
2022-08-14T13:34:14.653Z,36.00
2022-08-14T13:36:54.693Z,36.40
2022-08-14T13:39:26.393Z,37.90
2022-08-14T13:41:55.593Z,37.40
2022-08-14T13:44:21.934Z,38.00
2022-08-14T13:46:48.182Z,38.70
2022-08-14T13:49:14.823Z,37.80
2022-08-14T13:51:43.328Z,36.20
2022-08-14T13:54:11.056Z,37.50
2022-08-14T13:56:40.408Z,34.80
2022-08-14T13:59:04.413Z,37.10
2022-08-14T14:01:29.678Z,37.30
2022-08-14T14:03:57.476Z,37.50
2022-08-14T14:06:25.229Z,37.40
2022-08-14T14:08:51.031Z,38.30
2022-08-14T14:11:16.594Z,36.40
2022-08-14T14:13:45.236Z,36.80
2022-08-14T14:16:11.791Z,36.00
2022-08-14T14:18:42.419Z,35.60
2022-08-14T14:21:06.791Z,35.90
2022-08-14T14:23:34.527Z,35.40
2022-08-14T14:25:58.893Z,35.20
2022-08-14T14:28:24.315Z,36.20
2022-08-14T14:30:53.034Z,35.60
2022-08-14T14:33:44.829Z,36.00
2022-08-14T14:36:02.858Z,33.60
2022-08-14T14:38:32.748Z,33.30
2022-08-14T14:41:00.788Z,35.70
2022-08-14T14:43:27.366Z,35.50
2022-08-14T14:45:56.309Z,34.70
2022-08-14T14:48:21.985Z,35.50
2022-08-14T14:50:53.086Z,34.50
2022-08-14T14:53:16.819Z,35.10
2022-08-14T14:55:59.569Z,36.00
2022-08-14T14:58:26.216Z,35.70
2022-08-14T15:00:57.269Z,34.70
2022-08-14T15:03:20.976Z,35.50
2022-08-14T15:05:45.082Z,35.00
2022-08-14T15:08:09.196Z,33.50
2022-08-14T15:10:40.798Z,33.40
2022-08-14T15:13:10.513Z,34.30
2022-08-14T15:15:36.884Z,35.10
2022-08-14T15:18:02.907Z,34.30
2022-08-14T15:20:31.461Z,34.00
2022-08-14T15:22:55.361Z,33.10
2022-08-14T15:25:19.031Z,32.90
2022-08-14T15:27:44.361Z,33.00
2022-08-14T15:30:11.145Z,34.30
2022-08-14T15:32:34.910Z,35.40
2022-08-14T15:35:02.554Z,34.60
2022-08-14T15:37:26.235Z,34.70
2022-08-14T15:39:59.036Z,33.00
2022-08-14T15:42:25.294Z,35.10
2022-08-14T15:44:58.137Z,33.20
2022-08-14T15:47:28.152Z,33.30
2022-08-14T15:49:54.391Z,33.90
2022-08-14T15:52:32.483Z,34.60
2022-08-14T15:54:59.806Z,33.40
2022-08-14T15:57:23.371Z,36.30
2022-08-14T16:00:04.813Z,35.40
2022-08-14T16:02:35.247Z,34.90
2022-08-14T16:04:58.875Z,35.90
2022-08-14T16:07:30.370Z,35.80
2022-08-14T16:10:27.268Z,36.10
2022-08-14T16:12:50.064Z,36.60
2022-08-14T16:15:13.767Z,36.70
2022-08-14T16:17:44.266Z,34.40
2022-08-14T16:20:10.518Z,33.30
2022-08-14T16:23:10.409Z,33.90
2022-08-14T16:25:21.296Z,34.50
2022-08-14T16:28:00.316Z,34.60
2022-08-14T16:30:27.528Z,36.20
2022-08-14T16:32:55.499Z,35.70
2022-08-14T16:35:19.978Z,36.10
2022-08-14T16:37:45.281Z,36.70
2022-08-14T16:40:12.706Z,35.20
2022-08-14T16:43:12.797Z,34.50
2022-08-14T16:45:27.720Z,34.80
2022-08-14T16:47:51.313Z,34.60
2022-08-14T16:50:40.787Z,35.10
2022-08-14T16:53:02.112Z,34.90
2022-08-14T16:55:31.295Z,35.20
2022-08-14T16:57:59.418Z,34.90
2022-08-14T17:00:32.989Z,35.00
2022-08-14T17:03:04.044Z,34.80
2022-08-14T17:05:30.971Z,35.20
2022-08-14T17:08:41.480Z,35.00
2022-08-14T17:11:09.946Z,35.80
2022-08-14T17:13:59.818Z,35.70
2022-08-14T17:16:23.967Z,35.50
2022-08-14T17:18:55.487Z,35.60
2022-08-14T17:21:31.808Z,35.40
2022-08-14T17:24:00.712Z,35.00
2022-08-14T17:26:38.105Z,35.10
2022-08-14T17:29:11.306Z,35.40
2022-08-14T17:31:58.556Z,35.60
2022-08-14T17:34:21.088Z,35.50
2022-08-14T17:36:50.630Z,35.70
2022-08-14T17:39:19.252Z,35.00
2022-08-14T17:42:01.997Z,34.90
2022-08-14T17:44:33.352Z,34.80
2022-08-14T17:47:01.799Z,34.70
2022-08-14T17:49:28.319Z,35.40
2022-08-14T17:52:03.700Z,35.10
2022-08-14T17:54:36.555Z,35.00
2022-08-14T17:57:13.082Z,34.80
2022-08-14T17:59:39.726Z,34.90
2022-08-14T18:02:07.318Z,35.10
2022-08-14T18:04:33.818Z,35.00
2022-08-14T18:07:16.786Z,35.40
2022-08-14T18:09:56.780Z,35.90
2022-08-14T18:12:31.818Z,35.70
2022-08-14T18:14:56.088Z,35.80
2022-08-14T18:17:23.581Z,36.50
2022-08-14T18:19:48.289Z,36.90
2022-08-14T18:22:24.054Z,38.00
2022-08-14T18:24:56.868Z,36.90
2022-08-14T18:27:25.265Z,39.10
2022-08-14T18:29:55.931Z,37.30
2022-08-14T18:32:47.450Z,37.60
2022-08-14T18:35:14.722Z,39.30
2022-08-14T18:37:39.867Z,38.20
2022-08-14T18:40:35.199Z,38.60
2022-08-14T18:43:03.516Z,38.60
2022-08-14T18:45:30.308Z,38.40
2022-08-14T18:48:15.937Z,38.70
2022-08-14T18:50:52.787Z,39.10
2022-08-14T18:53:17.250Z,39.20
2022-08-14T18:55:55.688Z,40.40
2022-08-14T18:58:31.048Z,40.20
2022-08-14T19:01:00.044Z,40.30
2022-08-14T19:03:57.836Z,40.40
2022-08-14T19:06:37.447Z,41.00
2022-08-14T19:09:02.734Z,41.50
2022-08-14T19:11:50.372Z,41.50
2022-08-14T19:14:18.561Z,41.60
2022-08-14T19:16:53.580Z,41.90
2022-08-14T19:19:17.918Z,42.20
2022-08-14T19:21:55.555Z,42.40
2022-08-14T19:24:27.876Z,42.00
2022-08-14T19:27:19.279Z,42.30
2022-08-14T19:29:47.785Z,42.50
2022-08-14T19:32:40.763Z,42.50
2022-08-14T19:35:16.938Z,42.70
2022-08-14T19:37:48.433Z,43.00
2022-08-14T19:40:29.712Z,43.10
2022-08-14T19:42:58.300Z,44.30
2022-08-14T19:45:25.575Z,46.00
2022-08-14T19:47:49.847Z,46.20
2022-08-14T19:50:31.108Z,45.80
2022-08-14T19:53:11.060Z,46.20
2022-08-14T19:55:37.261Z,47.70
2022-08-14T19:58:02.239Z,48.30
2022-08-14T20:00:30.047Z,48.50
2022-08-14T20:03:09.949Z,48.60
2022-08-14T20:05:39.942Z,47.70
2022-08-14T20:09:05.875Z,49.60
2022-08-14T20:11:06.714Z,49.40
2022-08-14T20:13:39.384Z,50.50
2022-08-14T20:16:20.950Z,48.00
2022-08-14T20:18:57.403Z,51.30
2022-08-14T20:21:34.415Z,50.80
2022-08-14T20:24:30.809Z,50.30
2022-08-14T20:27:34.022Z,50.80
2022-08-14T20:30:33.905Z,48.80
2022-08-14T20:33:01.429Z,51.40
2022-08-14T20:35:35.429Z,52.00
2022-08-14T20:38:29.133Z,49.40
2022-08-14T20:40:52.292Z,51.40
2022-08-14T20:43:35.458Z,51.30
2022-08-14T20:46:00.793Z,52.20
2022-08-14T20:48:52.260Z,49.20
2022-08-14T20:51:24.189Z,50.10
2022-08-14T20:53:58.083Z,47.80
2022-08-14T20:56:28.572Z,48.30
2022-08-14T20:58:54.169Z,47.40
2022-08-14T21:01:38.537Z,47.10
2022-08-14T21:04:05.058Z,48.50
2022-08-14T21:06:49.345Z,49.50
2022-08-14T21:10:05.660Z,49.40
2022-08-14T21:12:33.454Z,49.60
2022-08-14T21:14:54.639Z,51.70
2022-08-14T21:17:23.469Z,50.50
2022-08-14T21:19:50.562Z,49.50
2022-08-14T21:22:14.305Z,50.10
2022-08-14T21:24:39.192Z,50.80
2022-08-14T21:27:21.797Z,48.50
2022-08-14T21:29:54.394Z,48.70
2022-08-14T21:32:33.628Z,49.00
2022-08-14T21:34:59.111Z,52.20
2022-08-14T21:37:23.649Z,49.00
2022-08-14T21:39:47.419Z,48.30
2022-08-14T21:42:22.045Z,49.00
2022-08-14T21:44:53.434Z,49.40
2022-08-14T21:47:17.660Z,49.20
2022-08-14T21:49:48.223Z,49.60
2022-08-14T21:52:52.138Z,49.50
2022-08-14T21:55:09.709Z,50.90
2022-08-14T21:58:03.723Z,49.70
2022-08-14T22:00:35.217Z,50.00
2022-08-14T22:03:01.099Z,50.50
2022-08-14T22:05:25.590Z,50.10
2022-08-14T22:07:54.460Z,50.30
2022-08-14T22:10:23.005Z,51.10
2022-08-14T22:13:00.672Z,52.50
2022-08-14T22:15:25.572Z,53.90
2022-08-14T22:17:52.238Z,52.00
2022-08-14T22:20:20.508Z,54.00
2022-08-14T22:22:45.796Z,55.20
2022-08-14T22:25:16.124Z,53.10
2022-08-14T22:27:55.421Z,55.10
2022-08-14T22:30:20.111Z,55.30
2022-08-14T22:32:56.752Z,55.50
2022-08-14T22:35:23.638Z,55.00
2022-08-14T22:37:47.353Z,54.20
2022-08-14T22:40:55.304Z,57.20
2022-08-14T22:43:19.692Z,55.50
2022-08-14T22:45:55.191Z,57.00
2022-08-14T22:48:18.933Z,56.50
2022-08-14T22:50:53.208Z,57.60
2022-08-14T22:53:17.537Z,56.90
2022-08-14T22:55:44.732Z,57.60
2022-08-14T22:58:10.958Z,58.50
2022-08-14T23:00:43.897Z,58.30
2022-08-14T23:03:17.522Z,57.10
2022-08-14T23:05:52.521Z,58.90
2022-08-14T23:08:59.070Z,59.30
2022-08-14T23:11:04.102Z,57.20
2022-08-14T23:13:30.582Z,57.60
2022-08-14T23:15:55.019Z,57.30
2022-08-14T23:18:18.532Z,57.70
2022-08-14T23:20:46.089Z,58.40
2022-08-14T23:23:22.925Z,59.10
2022-08-14T23:26:00.118Z,58.40
2022-08-14T23:28:56.919Z,61.00
2022-08-14T23:31:34.500Z,59.40
2022-08-14T23:33:59.130Z,59.60
2022-08-14T23:36:31.840Z,59.10
2022-08-14T23:38:56.514Z,61.10
2022-08-14T23:41:20.117Z,62.70
2022-08-14T23:43:49.056Z,62.50
2022-08-14T23:46:15.028Z,62.00
2022-08-14T23:48:40.439Z,62.50
2022-08-14T23:51:11.952Z,61.40
2022-08-14T23:53:48.259Z,59.50
2022-08-14T23:56:30.408Z,60.70
2022-08-14T23:58:57.625Z,59.70
